createdAt,value
2019-06-25T00:00:30.707Z,93
2019-06-25T00:01:27.725Z,93
2019-06-25T00:03:21.378Z,93
2019-06-25T00:03:31.897Z,93
2019-06-25T00:04:29.088Z,93
2019-06-25T00:05:31.155Z,93
2019-06-25T00:06:29.998Z,93
2019-06-25T00:07:30.615Z,93
2019-06-25T00:08:31.776Z,92
2019-06-25T00:09:33.501Z,92
2019-06-25T00:10:32.697Z,92
2019-06-25T00:11:32.178Z,91
2019-06-25T00:12:34.070Z,91
2019-06-25T00:13:30.409Z,89
2019-06-25T00:14:30.109Z,89
2019-06-25T00:15:32.786Z,89
2019-06-25T00:16:34.493Z,88
2019-06-25T00:17:30.785Z,88
2019-06-25T00:18:29.715Z,87
2019-06-25T00:19:32.773Z,87
2019-06-25T00:20:32.541Z,87
2019-06-25T00:21:32.589Z,86
2019-06-25T00:22:30.996Z,86
2019-06-25T00:33:17.711Z,86
2019-06-25T00:33:33.281Z,86
2019-06-25T00:34:33.774Z,84
2019-06-25T00:35:33.644Z,84
2019-06-25T00:36:35.850Z,83
2019-06-25T00:37:33.914Z,83
2019-06-25T00:38:33.707Z,83
2019-06-25T00:39:33.637Z,83
2019-06-25T00:40:32.962Z,83
2019-06-25T00:41:50.053Z,83
2019-06-25T00:42:36.869Z,83
2019-06-25T00:43:33.980Z,83
2019-06-25T00:44:33.929Z,84
2019-06-25T00:45:34.606Z,84
2019-06-25T00:46:35.745Z,84
2019-06-25T00:47:34.390Z,84
2019-06-25T00:48:36.844Z,84
2019-06-25T00:49:36.098Z,85
2019-06-25T00:50:32.201Z,85
2019-06-25T00:53:43.446Z,85
2019-06-25T00:54:44.839Z,85
2019-06-25T00:55:47.018Z,85
2019-06-25T00:56:45.405Z,85
2019-06-25T00:57:45.736Z,85
2019-06-25T00:58:45.843Z,85
2019-06-25T00:59:43.858Z,86
2019-06-25T01:00:46.409Z,86
2019-06-25T01:01:45.874Z,86
2019-06-25T01:02:44.695Z,86
2019-06-25T01:04:58.362Z,87
2019-06-25T01:05:59.849Z,87
2019-06-25T01:06:57.398Z,87
2019-06-25T01:07:57.773Z,87
2019-06-25T01:09:00.571Z,87
2019-06-25T01:10:06.672Z,87
2019-06-25T01:10:55.804Z,87
2019-06-25T01:11:57.696Z,88
2019-06-25T01:12:56.963Z,88
2019-06-25T01:13:59.515Z,88
2019-06-25T01:18:13.846Z,88
2019-06-25T01:18:24.016Z,88
2019-06-25T01:19:24.172Z,89
2019-06-25T01:20:28.734Z,89
2019-06-25T01:21:25.705Z,89
2019-06-25T01:22:25.913Z,89
2019-06-25T01:23:27.901Z,89
2019-06-25T01:24:25.214Z,89
2019-06-25T01:25:23.687Z,89
2019-06-25T01:26:27.012Z,89
2019-06-25T01:27:24.144Z,90
2019-06-25T01:28:25.349Z,90
2019-06-25T01:29:24.339Z,90
2019-06-25T01:30:28.831Z,90
2019-06-25T01:31:24.827Z,90
2019-06-25T01:32:24.815Z,90
2019-06-25T01:33:23.742Z,90
2019-06-25T01:34:24.610Z,90
2019-06-25T01:35:25.662Z,90
2019-06-25T01:38:37.625Z,91
2019-06-25T01:39:37.316Z,91
2019-06-25T01:40:38.256Z,91
2019-06-25T01:41:37.915Z,91
2019-06-25T01:42:39.128Z,91
2019-06-25T01:43:40.297Z,91
2019-06-25T01:44:40.983Z,91
2019-06-25T01:45:37.295Z,91
2019-06-25T01:46:40.121Z,91
2019-06-25T01:47:39.996Z,91
2019-06-25T01:48:36.727Z,91
2019-06-25T01:49:39.146Z,91
2019-06-25T01:50:41.433Z,91
2019-06-25T01:51:38.017Z,91
2019-06-25T01:52:36.759Z,91
2019-06-25T01:53:39.962Z,91
2019-06-25T01:54:38.395Z,91
2019-06-25T01:55:38.838Z,91
2019-06-25T01:56:38.933Z,91
2019-06-25T01:57:39.054Z,91
2019-06-25T01:58:39.086Z,91
2019-06-25T01:59:41.603Z,91
2019-06-25T02:00:44.206Z,92
2019-06-25T02:01:38.961Z,92
2019-06-25T02:02:40.982Z,92
2019-06-25T02:03:48.691Z,92
2019-06-25T02:04:40.614Z,92
2019-06-25T02:05:44.801Z,92
2019-06-25T02:06:39.053Z,92
2019-06-25T02:07:40.210Z,92
2019-06-25T02:08:39.600Z,92
2019-06-25T02:09:36.920Z,92
2019-06-25T02:10:38.081Z,92
2019-06-25T02:11:39.392Z,92
2019-06-25T02:12:38.080Z,92
2019-06-25T02:13:38.430Z,92
2019-06-25T02:14:41.173Z,92
2019-06-25T02:15:51.975Z,92
2019-06-25T02:16:38.796Z,92
2019-06-25T02:17:41.071Z,92
2019-06-25T02:18:39.790Z,93
2019-06-25T02:19:38.525Z,93
2019-06-25T02:20:49.248Z,93
2019-06-25T02:21:40.063Z,93
2019-06-25T02:22:36.821Z,93
2019-06-25T02:23:36.808Z,93
2019-06-25T02:24:38.414Z,93
2019-06-25T02:35:32.040Z,93
2019-06-25T02:36:36.332Z,93
2019-06-25T02:37:37.443Z,93
2019-06-25T02:38:33.735Z,93
2019-06-25T02:39:33.006Z,93
2019-06-25T02:40:34.875Z,93
2019-06-25T02:41:34.363Z,93
2019-06-25T02:42:36.018Z,93
2019-06-25T02:43:34.728Z,93
2019-06-25T02:44:34.183Z,93
2019-06-25T02:45:33.119Z,93
2019-06-25T02:46:33.900Z,94
2019-06-25T02:47:33.875Z,94
2019-06-25T02:48:34.176Z,94
2019-06-25T02:49:33.673Z,94
2019-06-25T02:50:37.629Z,94
2019-06-25T02:51:34.681Z,94
2019-06-25T02:52:35.756Z,94
2019-06-25T02:53:35.494Z,94
2019-06-25T02:54:33.229Z,94
2019-06-25T02:55:35.717Z,94
2019-06-25T02:56:34.414Z,94
2019-06-25T02:57:34.923Z,94
2019-06-25T02:58:36.110Z,94
2019-06-25T02:59:34.553Z,94
2019-06-25T03:00:36.216Z,94
2019-06-25T03:01:34.112Z,94
2019-06-25T03:02:35.020Z,94
2019-06-25T03:08:29.763Z,94
2019-06-25T03:08:44.811Z,94
2019-06-25T03:09:42.787Z,94
2019-06-25T03:10:40.881Z,94
2019-06-25T03:11:42.476Z,94
2019-06-25T03:12:42.002Z,94
2019-06-25T03:13:40.734Z,94
2019-06-25T03:14:39.697Z,94
2019-06-25T03:15:42.226Z,94
2019-06-25T03:16:43.007Z,93
2019-06-25T03:17:41.890Z,93
2019-06-25T03:18:43.853Z,93
2019-06-25T03:19:42.999Z,94
2019-06-25T03:20:42.767Z,94
2019-06-25T03:21:46.409Z,93
2019-06-25T03:22:41.054Z,93
2019-06-25T03:23:43.428Z,93
2019-06-25T03:24:42.971Z,93
2019-06-25T03:25:42.740Z,93
2019-06-25T03:26:41.125Z,93
2019-06-25T03:27:40.609Z,93
2019-06-25T03:28:42.029Z,93
2019-06-25T03:29:40.433Z,93
2019-06-25T03:30:39.822Z,93
2019-06-25T03:32:03.134Z,93
2019-06-25T03:32:40.546Z,93
2019-06-25T03:33:42.212Z,93
2019-06-25T03:34:40.849Z,93
2019-06-25T03:35:40.941Z,93
2019-06-25T03:36:41.935Z,93
2019-06-25T03:37:41.024Z,93
2019-06-25T03:38:43.357Z,93
2019-06-25T03:39:39.908Z,93
2019-06-25T03:40:42.379Z,93
2019-06-25T03:41:41.060Z,93
2019-06-25T03:42:42.542Z,93
2019-06-25T03:43:41.204Z,93
2019-06-25T03:44:41.582Z,93
2019-06-25T03:55:33.536Z,93
2019-06-25T03:56:29.758Z,93
2019-06-25T03:57:31.701Z,93
2019-06-25T03:58:30.118Z,93
2019-06-25T03:59:30.417Z,93
2019-06-25T04:00:27.474Z,93
2019-06-25T04:01:27.064Z,93
2019-06-25T04:02:29.278Z,93
2019-06-25T04:03:30.466Z,93
2019-06-25T04:04:28.859Z,93
2019-06-25T04:10:23.544Z,93
2019-06-25T04:10:32.241Z,93
2019-06-25T04:11:32.351Z,92
2019-06-25T04:12:32.763Z,92
2019-06-25T04:13:31.494Z,92
2019-06-25T04:14:33.034Z,92
2019-06-25T04:15:33.782Z,90
2019-06-25T04:16:38.860Z,90
2019-06-25T04:17:32.114Z,88
2019-06-25T04:18:31.968Z,88
2019-06-25T04:19:32.510Z,88
2019-06-25T04:20:33.297Z,87
2019-06-25T04:21:33.757Z,87
2019-06-25T04:22:33.959Z,86
2019-06-25T04:23:33.274Z,86
2019-06-25T04:24:33.217Z,86
2019-06-25T04:25:31.680Z,85
2019-06-25T04:26:33.537Z,85
2019-06-25T04:27:33.690Z,85
2019-06-25T04:29:00.193Z,84
2019-06-25T04:29:32.031Z,84
2019-06-25T04:30:37.714Z,84
2019-06-25T04:32:14.198Z,84
2019-06-25T04:33:17.063Z,84
2019-06-25T04:33:36.947Z,83
2019-06-25T04:34:35.423Z,83
2019-06-25T04:35:53.192Z,83
2019-06-25T04:36:37.261Z,83
2019-06-25T04:37:33.961Z,83
2019-06-25T04:38:35.531Z,82
2019-06-25T04:40:45.498Z,80
2019-06-25T04:41:50.542Z,80
2019-06-25T04:42:48.396Z,80
2019-06-25T04:43:45.499Z,80
2019-06-25T04:44:50.240Z,80
2019-06-25T04:45:51.045Z,80
2019-06-25T04:46:51.566Z,80
2019-06-25T04:47:59.528Z,80
2019-06-25T04:48:52.584Z,79
2019-06-25T04:49:49.149Z,79
2019-06-25T04:50:45.198Z,77
2019-06-25T04:51:46.877Z,77
2019-06-25T04:52:48.926Z,77
2019-06-25T04:53:46.109Z,77
2019-06-25T04:54:52.972Z,77
2019-06-25T04:55:47.903Z,77
2019-06-25T04:56:44.462Z,77
2019-06-25T04:57:49.196Z,77
2019-06-25T04:58:59.814Z,76
2019-06-25T04:59:56.581Z,76
2019-06-25T05:00:56.220Z,76
2019-06-25T05:01:51.573Z,76
2019-06-25T05:02:50.355Z,76
2019-06-25T05:03:47.222Z,76
2019-06-25T05:04:59.282Z,76
2019-06-25T05:05:55.547Z,75
2019-06-25T05:06:48.001Z,75
2019-06-25T05:07:51.190Z,75
2019-06-25T05:08:48.427Z,76
2019-06-25T05:09:49.822Z,76
2019-06-25T05:20:28.830Z,76
2019-06-25T05:20:59.988Z,76
2019-06-25T05:21:58.807Z,74
2019-06-25T05:22:59.538Z,74
2019-06-25T05:24:01.472Z,73
2019-06-25T05:24:59.988Z,73
2019-06-25T05:25:59.805Z,73
2019-06-25T05:27:02.142Z,73
2019-06-25T05:28:40.423Z,73
2019-06-25T05:29:34.163Z,73
2019-06-25T05:30:15.656Z,73
2019-06-25T05:30:58.789Z,73
2019-06-25T05:31:58.487Z,72
2019-06-25T05:33:04.966Z,72
2019-06-25T05:34:36.746Z,72
2019-06-25T05:34:57.394Z,72
2019-06-25T05:36:02.539Z,72
2019-06-25T05:37:32.435Z,72
2019-06-25T05:38:15.247Z,72
2019-06-25T05:39:28.358Z,72
2019-06-25T05:40:06.831Z,72
2019-06-25T05:41:05.188Z,72
2019-06-25T05:41:59.503Z,71
2019-06-25T05:43:12.316Z,71
2019-06-25T05:44:06.220Z,70
2019-06-25T05:45:51.955Z,70
2019-06-25T05:46:08.363Z,70
2019-06-25T05:47:20.199Z,71
2019-06-25T05:48:01.885Z,71
2019-06-25T05:49:01.663Z,71
2019-06-25T05:50:05.422Z,71
2019-06-25T05:51:06.754Z,71
2019-06-25T05:52:02.462Z,70
2019-06-25T05:53:08.043Z,70
2019-06-25T05:54:09.026Z,71
2019-06-25T05:55:12.816Z,71
2019-06-25T05:56:16.676Z,71
2019-06-25T05:57:04.442Z,71
2019-06-25T05:58:17.851Z,71
2019-06-25T05:59:08.236Z,71
2019-06-25T06:00:06.979Z,71
2019-06-25T06:01:16.186Z,71
2019-06-25T06:02:10.079Z,71
2019-06-25T06:03:02.835Z,71
2019-06-25T06:12:15.817Z,71
2019-06-25T06:12:29.790Z,71
2019-06-25T06:13:37.990Z,69
2019-06-25T06:14:37.003Z,70
2019-06-25T06:15:33.438Z,70
2019-06-25T06:16:33.698Z,70
2019-06-25T06:17:38.825Z,70
2019-06-25T06:18:50.850Z,70
2019-06-25T06:19:32.547Z,70
2019-06-25T06:21:50.525Z,70
2019-06-25T06:22:47.325Z,70
2019-06-25T06:23:49.364Z,70
2019-06-25T06:24:51.407Z,69
2019-06-25T06:25:49.650Z,69
2019-06-25T06:26:48.587Z,69
2019-06-25T06:27:51.737Z,69
2019-06-25T06:29:02.188Z,69
2019-06-25T06:29:47.121Z,69
2019-06-25T06:30:53.215Z,69
2019-06-25T06:31:46.879Z,69
2019-06-25T06:32:51.408Z,70
2019-06-25T06:33:43.311Z,70
2019-06-25T06:34:46.185Z,69
2019-06-25T06:35:53.160Z,69
2019-06-25T06:36:45.862Z,69
2019-06-25T06:37:48.820Z,68
2019-06-25T06:38:45.295Z,68
2019-06-25T06:39:45.372Z,68
2019-06-25T06:40:46.497Z,69
2019-06-25T06:41:48.324Z,69
2019-06-25T06:42:52.643Z,68
2019-06-25T06:44:00.635Z,68
2019-06-25T06:44:46.540Z,68
2019-06-25T06:45:51.028Z,68
2019-06-25T06:46:47.472Z,68
2019-06-25T06:47:49.002Z,68
2019-06-25T06:48:45.995Z,68
2019-06-25T06:49:46.957Z,68
2019-06-25T06:50:47.182Z,67
2019-06-25T06:52:25.762Z,67
2019-06-25T06:52:49.104Z,67
2019-06-25T06:53:45.408Z,67
2019-06-25T06:54:49.543Z,67
2019-06-25T06:55:58.272Z,67
2019-06-25T06:57:08.715Z,67
2019-06-25T06:58:00.122Z,68
2019-06-25T06:59:05.629Z,68
2019-06-25T07:00:16.424Z,68
2019-06-25T07:00:52.009Z,67
2019-06-25T07:02:04.025Z,67
2019-06-25T07:02:52.749Z,67
2019-06-25T07:04:02.271Z,67
2019-06-25T07:05:03.121Z,67
2019-06-25T07:05:58.073Z,67
2019-06-25T07:07:04.662Z,67
2019-06-25T07:07:51.987Z,67
2019-06-25T07:08:58.645Z,67
2019-06-25T07:10:09.975Z,67
2019-06-25T07:10:50.411Z,67
2019-06-25T07:22:16.934Z,67
2019-06-25T07:23:33.151Z,66
2019-06-25T07:24:26.489Z,66
2019-06-25T07:25:04.488Z,66
2019-06-25T07:26:04.972Z,68
2019-06-25T07:27:43.188Z,68
2019-06-25T07:28:08.542Z,68
2019-06-25T07:29:24.030Z,68
2019-06-25T07:30:02.232Z,68
2019-06-25T07:31:12.939Z,67
2019-06-25T07:32:14.250Z,67
2019-06-25T07:33:35.721Z,67
2019-06-25T07:34:08.792Z,68
2019-06-25T07:35:19.371Z,68
2019-06-25T07:36:11.716Z,66
2019-06-25T07:37:06.003Z,66
2019-06-25T07:38:26.296Z,66
2019-06-25T07:39:04.897Z,66
2019-06-25T07:40:33.704Z,66
2019-06-25T07:41:18.921Z,67
2019-06-25T07:42:15.561Z,67
2019-06-25T07:43:21.983Z,67
2019-06-25T07:44:11.936Z,65
2019-06-25T07:45:37.918Z,65
2019-06-25T07:46:10.153Z,64
2019-06-25T07:47:09.028Z,64
2019-06-25T07:48:14.473Z,64
2019-06-25T07:49:09.658Z,65
2019-06-25T07:50:15.266Z,65
2019-06-25T07:51:11.555Z,65
2019-06-25T07:52:33.167Z,65
2019-06-25T07:53:29.159Z,65
2019-06-25T07:54:21.992Z,63
2019-06-25T07:55:20.488Z,63
2019-06-25T07:56:36.136Z,62
2019-06-25T07:57:20.350Z,62
2019-06-25T07:58:11.966Z,62
2019-06-25T08:00:24.577Z,63
2019-06-25T08:01:17.582Z,63
2019-06-25T08:02:22.418Z,63
2019-06-25T08:03:22.611Z,63
2019-06-25T08:04:28.184Z,63
2019-06-25T08:05:21.566Z,63
2019-06-25T08:06:31.950Z,64
2019-06-25T08:07:21.005Z,64
2019-06-25T08:08:29.903Z,64
2019-06-25T08:09:33.169Z,64
2019-06-25T08:10:32.704Z,64
2019-06-25T08:11:26.580Z,64
2019-06-25T08:12:49.246Z,63
2019-06-25T08:13:29.327Z,63
2019-06-25T08:14:40.177Z,63
2019-06-25T08:15:40.606Z,63
2019-06-25T08:16:39.690Z,63
2019-06-25T08:17:37.922Z,62
2019-06-25T08:18:21.393Z,62
2019-06-25T08:19:34.626Z,65
2019-06-25T08:20:25.808Z,65
2019-06-25T08:21:39.692Z,65
2019-06-25T08:22:30.879Z,64
2019-06-25T08:23:23.393Z,64
2019-06-25T08:24:49.123Z,64
2019-06-25T08:25:32.360Z,64
2019-06-25T08:26:42.099Z,64
2019-06-25T08:27:30.375Z,63
2019-06-25T08:28:47.602Z,63
2019-06-25T08:29:28.728Z,64
2019-06-25T08:30:47.648Z,64
2019-06-25T08:31:25.763Z,64
2019-06-25T08:32:27.361Z,62
2019-06-25T08:33:37.379Z,62
2019-06-25T08:35:14.782Z,63
2019-06-25T08:35:40.581Z,63
2019-06-25T08:37:01.117Z,63
2019-06-25T08:37:41.831Z,65
2019-06-25T08:38:48.231Z,65
2019-06-25T08:39:26.920Z,62
2019-06-25T08:40:30.749Z,62
2019-06-25T08:41:30.114Z,62
2019-06-25T08:42:30.966Z,62
2019-06-25T08:43:46.931Z,62
2019-06-25T08:44:38.089Z,62
2019-06-25T08:47:43.474Z,62
2019-06-25T08:48:49.142Z,63
2019-06-25T08:49:55.691Z,63
2019-06-25T08:50:52.037Z,63
2019-06-25T08:51:42.178Z,63
2019-06-25T08:53:01.608Z,61
2019-06-25T08:54:04.703Z,61
2019-06-25T08:55:10.014Z,63
2019-06-25T08:55:57.879Z,63
2019-06-25T08:56:57.586Z,63
2019-06-25T08:58:54.797Z,61
2019-06-25T09:00:02.282Z,62
2019-06-25T09:01:10.047Z,62
2019-06-25T09:01:53.041Z,62
2019-06-25T09:02:55.987Z,62
2019-06-25T09:03:52.639Z,62
2019-06-25T09:05:03.200Z,59
2019-06-25T09:06:11.593Z,59
2019-06-25T09:07:03.851Z,59
2019-06-25T09:08:04.576Z,59
2019-06-25T09:10:36.874Z,59
2019-06-25T09:11:21.321Z,59
2019-06-25T09:12:07.538Z,60
2019-06-25T09:13:31.690Z,61
2019-06-25T09:14:19.635Z,61
2019-06-25T09:15:16.578Z,59
2019-06-25T09:16:18.306Z,59
2019-06-25T09:17:07.992Z,59
2019-06-25T09:18:15.537Z,59
2019-06-25T09:20:04.325Z,59
2019-06-25T09:20:15.170Z,59
2019-06-25T09:21:27.597Z,58
2019-06-25T09:22:28.159Z,58
2019-06-25T09:23:16.973Z,60
2019-06-25T09:24:34.101Z,60
2019-06-25T09:25:38.727Z,61
2019-06-25T09:26:24.994Z,61
2019-06-25T09:27:34.872Z,61
2019-06-25T09:28:16.820Z,60
2019-06-25T09:29:23.064Z,60
2019-06-25T09:31:30.082Z,60
2019-06-25T09:32:29.267Z,60
2019-06-25T09:33:31.120Z,59
2019-06-25T09:34:42.021Z,59
2019-06-25T09:35:28.319Z,59
2019-06-25T09:36:29.602Z,59
2019-06-25T09:37:46.780Z,59
2019-06-25T09:38:43.675Z,61
2019-06-25T09:39:30.108Z,61
2019-06-25T09:40:31.051Z,58
2019-06-25T09:41:54.212Z,58
2019-06-25T09:42:51.132Z,58
2019-06-25T09:43:29.909Z,59
2019-06-25T09:44:32.329Z,59
2019-06-25T09:45:40.030Z,57
2019-06-25T09:46:39.220Z,57
2019-06-25T09:47:32.377Z,57
2019-06-25T09:48:30.901Z,57
2019-06-25T09:49:44.311Z,57
2019-06-25T09:50:35.095Z,59
2019-06-25T09:56:45.713Z,59
2019-06-25T09:57:18.890Z,59
2019-06-25T09:58:01.051Z,59
2019-06-25T09:59:07.350Z,59
2019-06-25T10:00:09.630Z,59
2019-06-25T10:01:25.416Z,55
2019-06-25T10:02:08.614Z,55
2019-06-25T10:02:56.817Z,55
2019-06-25T10:04:10.023Z,56
2019-06-25T10:05:10.731Z,56
2019-06-25T10:06:05.617Z,58
2019-06-25T10:07:06.906Z,58
2019-06-25T10:07:57.299Z,58
2019-06-25T10:08:58.697Z,57
2019-06-25T10:10:02.547Z,57
2019-06-25T10:10:59.802Z,57
2019-06-25T10:12:11.298Z,57
2019-06-25T10:13:09.136Z,57
2019-06-25T10:14:26.208Z,57
2019-06-25T10:15:03.029Z,57
2019-06-25T10:16:08.886Z,57
2019-06-25T10:17:08.675Z,57
2019-06-25T10:18:08.033Z,57
2019-06-25T10:19:10.943Z,56
2019-06-25T10:20:23.205Z,56
2019-06-25T10:21:05.758Z,55
2019-06-25T10:22:02.524Z,55
2019-06-25T10:23:05.430Z,55
2019-06-25T10:24:10.771Z,58
2019-06-25T10:25:06.355Z,58
2019-06-25T10:26:03.425Z,58
2019-06-25T10:27:19.691Z,56
2019-06-25T10:28:03.308Z,56
2019-06-25T10:28:57.149Z,55
2019-06-25T10:30:04.383Z,55
2019-06-25T10:31:24.148Z,55
2019-06-25T10:32:12.694Z,56
2019-06-25T10:33:13.602Z,56
2019-06-25T10:34:16.736Z,59
2019-06-25T10:35:06.381Z,59
2019-06-25T10:36:04.271Z,59
2019-06-25T10:36:57.527Z,56
2019-06-25T10:38:27.522Z,56
2019-06-25T10:39:59.894Z,56
2019-06-25T10:40:31.836Z,56
2019-06-25T10:42:44.280Z,57
2019-06-25T10:43:44.814Z,57
2019-06-25T10:44:52.435Z,56
2019-06-25T10:45:59.583Z,56
2019-06-25T10:46:34.082Z,59
2019-06-25T10:47:37.084Z,59
2019-06-25T10:48:35.134Z,59
2019-06-25T10:49:46.394Z,56
2019-06-25T10:51:16.009Z,56
2019-06-25T10:51:41.252Z,56
2019-06-25T10:52:39.047Z,56
2019-06-25T10:53:44.346Z,56
2019-06-25T10:54:45.754Z,54
2019-06-25T10:55:39.826Z,54
2019-06-25T10:56:51.358Z,54
2019-06-25T10:58:01.805Z,54
2019-06-25T10:58:58.591Z,54
2019-06-25T10:59:33.318Z,56
2019-06-25T11:00:49.981Z,56
2019-06-25T11:02:05.240Z,56
2019-06-25T11:02:43.847Z,55
2019-06-25T11:03:47.200Z,55
2019-06-25T11:04:44.653Z,56
2019-06-25T11:06:08.169Z,56
2019-06-25T11:07:06.842Z,56
2019-06-25T11:07:52.434Z,55
2019-06-25T11:09:23.668Z,55
2019-06-25T11:10:04.801Z,55
2019-06-25T11:10:42.503Z,54
2019-06-25T11:11:56.415Z,54
2019-06-25T11:14:06.905Z,55
2019-06-25T11:15:11.604Z,55
2019-06-25T11:15:51.051Z,55
2019-06-25T11:17:13.340Z,55
2019-06-25T11:18:02.641Z,55
2019-06-25T11:18:58.443Z,55
2019-06-25T11:20:00.496Z,53
2019-06-25T11:21:02.276Z,53
2019-06-25T11:21:49.808Z,53
2019-06-25T11:22:57.514Z,55
2019-06-25T11:23:59.881Z,55
2019-06-25T11:25:00.342Z,54
2019-06-25T11:26:20.332Z,54
2019-06-25T11:26:51.755Z,54
2019-06-25T11:27:48.590Z,55
2019-06-25T11:29:11.862Z,55
2019-06-25T11:29:48.917Z,56
2019-06-25T11:30:50.474Z,56
2019-06-25T11:31:47.149Z,56
2019-06-25T11:33:19.321Z,56
2019-06-25T11:33:53.859Z,56
2019-06-25T11:34:51.595Z,54
2019-06-25T11:36:16.724Z,54
2019-06-25T11:37:30.227Z,54
2019-06-25T11:38:22.426Z,54
2019-06-25T11:39:01.394Z,54
2019-06-25T11:39:54.563Z,54
2019-06-25T11:41:01.491Z,54
2019-06-25T11:41:59.855Z,54
2019-06-25T11:43:01.976Z,54
2019-06-25T11:44:28.145Z,54
2019-06-25T11:45:04.678Z,54
2019-06-25T11:45:48.230Z,55
2019-06-25T11:46:56.124Z,55
2019-06-25T11:48:05.105Z,54
2019-06-25T11:49:00.867Z,54
2019-06-25T11:50:01.788Z,54
2019-06-25T11:51:10.057Z,52
2019-06-25T11:51:57.597Z,52
2019-06-25T11:52:45.860Z,53
2019-06-25T11:56:03.940Z,53
2019-06-25T11:57:10.025Z,51
2019-06-25T11:58:16.103Z,51
2019-06-25T11:59:16.512Z,51
2019-06-25T12:00:07.863Z,51
2019-06-25T12:01:11.003Z,51
2019-06-25T12:02:08.582Z,51
2019-06-25T12:03:10.827Z,54
2019-06-25T12:04:11.424Z,54
2019-06-25T12:05:20.748Z,54
2019-06-25T12:07:20.605Z,53
2019-06-25T12:08:16.412Z,52
2019-06-25T12:09:30.789Z,52
2019-06-25T12:10:43.476Z,52
2019-06-25T12:11:28.226Z,50
2019-06-25T12:12:19.871Z,50
2019-06-25T12:13:22.106Z,50
2019-06-25T12:14:21.601Z,50
2019-06-25T12:15:16.392Z,50
2019-06-25T12:16:17.795Z,54
2019-06-25T12:17:18.902Z,54
2019-06-25T12:18:27.431Z,52
2019-06-25T12:19:16.891Z,52
2019-06-25T12:20:33.199Z,52
2019-06-25T12:21:30.561Z,52
2019-06-25T12:22:20.606Z,52
2019-06-25T12:23:21.542Z,51
2019-06-25T12:24:16.688Z,51
2019-06-25T12:25:25.091Z,51
2019-06-25T12:26:27.912Z,52
2019-06-25T12:27:28.621Z,52
2019-06-25T12:28:24.932Z,52
2019-06-25T12:29:15.769Z,52
2019-06-25T12:30:16.775Z,52
2019-06-25T12:31:18.384Z,52
2019-06-25T12:32:36.912Z,52
2019-06-25T12:33:30.827Z,53
2019-06-25T12:34:49.685Z,53
2019-06-25T12:35:32.448Z,53
2019-06-25T12:36:24.209Z,54
2019-06-25T12:37:25.180Z,54
2019-06-25T12:38:29.331Z,54
2019-06-25T12:39:26.881Z,54
2019-06-25T12:40:35.443Z,54
2019-06-25T12:41:35.774Z,52
2019-06-25T12:42:30.839Z,52
2019-06-25T12:44:01.704Z,52
2019-06-25T12:44:31.844Z,52
2019-06-25T12:45:48.326Z,50
2019-06-25T12:46:32.220Z,48
2019-06-25T12:47:44.093Z,48
2019-06-25T12:48:37.504Z,48
2019-06-25T12:49:59.299Z,46
2019-06-25T12:50:40.282Z,46
2019-06-25T12:51:21.283Z,48
2019-06-25T12:52:39.031Z,48
2019-06-25T12:53:23.737Z,48
2019-06-25T12:54:36.333Z,48
2019-06-25T12:55:42.797Z,48
2019-06-25T12:56:45.053Z,47
2019-06-25T12:57:41.965Z,47
2019-06-25T12:58:31.731Z,47
2019-06-25T12:59:47.297Z,45
2019-06-25T13:00:47.585Z,45
2019-06-25T13:01:46.592Z,44
2019-06-25T13:02:41.203Z,44
2019-06-25T13:03:35.352Z,44
2019-06-25T13:04:33.807Z,44
2019-06-25T13:05:39.384Z,44
2019-06-25T13:06:17.741Z,48
2019-06-25T13:08:32.874Z,48
2019-06-25T13:09:35.674Z,48
2019-06-25T13:10:40.050Z,48
2019-06-25T13:11:26.552Z,47
2019-06-25T13:12:36.619Z,47
2019-06-25T13:13:28.701Z,47
2019-06-25T13:14:37.517Z,48
2019-06-25T13:15:34.117Z,48
2019-06-25T13:16:33.295Z,48
2019-06-25T13:17:28.836Z,48
2019-06-25T13:18:44.242Z,48
2019-06-25T13:19:32.655Z,48
2019-06-25T13:20:32.505Z,48
2019-06-25T13:21:29.563Z,46
2019-06-25T13:22:31.674Z,46
2019-06-25T13:23:32.640Z,46
2019-06-25T13:24:38.992Z,46
2019-06-25T13:25:33.832Z,46
2019-06-25T13:26:29.814Z,46
2019-06-25T13:27:35.318Z,45
2019-06-25T13:29:24.979Z,45
2019-06-25T13:29:43.470Z,45
2019-06-25T13:30:39.450Z,48
2019-06-25T13:31:40.003Z,50
2019-06-25T13:32:36.187Z,50
2019-06-25T13:33:36.253Z,50
2019-06-25T13:34:39.690Z,50
2019-06-25T13:35:38.300Z,50
2019-06-25T13:36:35.534Z,50
2019-06-25T13:37:41.881Z,47
2019-06-25T13:39:29.823Z,47
2019-06-25T13:39:44.614Z,47
2019-06-25T13:40:52.846Z,46
2019-06-25T13:41:45.633Z,46
2019-06-25T13:42:45.299Z,45
2019-06-25T13:43:55.319Z,45
2019-06-25T13:44:42.127Z,46
2019-06-25T13:45:56.881Z,46
2019-06-25T13:46:46.681Z,46
2019-06-25T13:47:49.132Z,48
2019-06-25T13:48:42.116Z,48
2019-06-25T13:49:52.220Z,47
2019-06-25T13:50:42.919Z,47
2019-06-25T13:51:48.105Z,47
2019-06-25T13:52:43.943Z,47
2019-06-25T13:53:41.356Z,47
2019-06-25T13:54:44.369Z,45
2019-06-25T13:55:42.880Z,45
2019-06-25T13:56:40.795Z,45
2019-06-25T13:57:48.403Z,45
2019-06-25T13:58:50.952Z,45
2019-06-25T13:59:52.591Z,44
2019-06-25T14:00:59.853Z,44
2019-06-25T14:01:48.005Z,44
2019-06-25T14:02:48.437Z,45
2019-06-25T14:03:44.443Z,45
2019-06-25T14:04:47.052Z,46
2019-06-25T14:05:42.568Z,46
2019-06-25T14:06:46.317Z,46
2019-06-25T14:07:57.822Z,45
2019-06-25T14:08:39.410Z,45
2019-06-25T14:09:41.549Z,45
2019-06-25T14:10:42.949Z,44
2019-06-25T14:11:49.968Z,44
2019-06-25T14:12:41.472Z,44
2019-06-25T14:13:56.855Z,44
2019-06-25T14:14:52.626Z,44
2019-06-25T14:15:43.263Z,44
2019-06-25T14:16:43.564Z,44
2019-06-25T14:18:02.144Z,45
2019-06-25T14:19:00.208Z,45
2019-06-25T14:19:53.428Z,45
2019-06-25T14:20:57.925Z,43
2019-06-25T14:21:53.655Z,43
2019-06-25T14:22:43.391Z,45
2019-06-25T14:23:45.436Z,45
2019-06-25T14:24:52.080Z,45
2019-06-25T14:25:44.965Z,45
2019-06-25T14:26:47.853Z,45
2019-06-25T14:27:47.540Z,45
2019-06-25T14:28:39.462Z,45
2019-06-25T14:29:55.337Z,45
2019-06-25T14:30:39.096Z,44
2019-06-25T14:31:40.178Z,44
2019-06-25T14:32:44.587Z,48
2019-06-25T14:33:47.997Z,48
2019-06-25T14:34:38.137Z,48
2019-06-25T14:35:39.160Z,47
2019-06-25T14:36:38.453Z,47
2019-06-25T14:37:38.071Z,46
2019-06-25T14:38:38.873Z,46
2019-06-25T14:39:38.889Z,46
2019-06-25T14:40:37.892Z,46
2019-06-25T14:41:38.005Z,46
2019-06-25T14:42:37.944Z,46
2019-06-25T14:43:38.405Z,47
2019-06-25T14:44:37.943Z,47
2019-06-25T14:45:38.325Z,49
2019-06-25T14:46:38.343Z,49
2019-06-25T14:47:38.237Z,49
2019-06-25T14:48:37.839Z,49
2019-06-25T14:49:54.032Z,49
2019-06-25T14:50:41.757Z,45
2019-06-25T14:51:38.008Z,45
2019-06-25T14:52:38.420Z,45
2019-06-25T14:53:39.283Z,45
2019-06-25T14:54:38.979Z,45
2019-06-25T14:55:38.347Z,45
2019-06-25T14:56:38.732Z,45
2019-06-25T14:57:38.289Z,45
2019-06-25T14:58:40.425Z,46
2019-06-25T15:04:20.621Z,46
2019-06-25T15:05:22.511Z,46
2019-06-25T15:07:21.524Z,46
2019-06-25T15:07:52.666Z,46
2019-06-25T15:09:25.500Z,45
2019-06-25T15:10:09.529Z,45
2019-06-25T15:14:33.254Z,45
2019-06-25T15:15:33.045Z,45
2019-06-25T15:16:33.815Z,44
2019-06-25T15:16:52.199Z,44
2019-06-25T15:18:09.081Z,44
2019-06-25T15:18:58.166Z,44
2019-06-25T15:20:17.024Z,44
2019-06-25T15:21:06.621Z,44
2019-06-25T15:22:30.307Z,44
2019-06-25T15:24:54.294Z,44
2019-06-25T15:25:47.398Z,44
2019-06-25T15:26:31.531Z,45
2019-06-25T15:28:27.812Z,45
2019-06-25T15:29:52.590Z,45
2019-06-25T15:30:11.538Z,45
2019-06-25T15:31:28.906Z,47
2019-06-25T15:33:32.058Z,47
2019-06-25T15:34:52.930Z,47
2019-06-25T15:36:19.826Z,47
2019-06-25T15:37:23.574Z,47
2019-06-25T15:37:42.491Z,44
2019-06-25T15:39:10.120Z,44
2019-06-25T15:40:06.529Z,44
2019-06-25T15:41:15.229Z,44
2019-06-25T15:44:36.845Z,44
2019-06-25T15:45:39.697Z,44
2019-06-25T15:46:35.714Z,44
2019-06-25T15:47:41.317Z,46
2019-06-25T15:48:39.340Z,46
2019-06-25T15:49:51.008Z,45
2019-06-25T15:50:29.208Z,45
2019-06-25T15:51:38.219Z,45
2019-06-25T15:52:27.511Z,44
2019-06-25T15:53:30.135Z,44
2019-06-25T15:54:51.790Z,45
2019-06-25T15:56:07.732Z,45
2019-06-25T15:58:24.503Z,45
2019-06-25T16:00:14.887Z,45
2019-06-25T16:10:30.194Z,45
2019-06-25T16:11:58.313Z,45
2019-06-25T16:13:48.555Z,45
2019-06-25T16:16:21.545Z,45
2019-06-25T16:18:32.557Z,45
2019-06-25T16:20:14.089Z,45
2019-06-25T16:23:09.600Z,45